Blairsville, GA (30512)

5:06 AM EDT on August 30, 2015 (GMT -0400)
Town Mountain | | Change Station
CLOSE
Current Station
Personal Weather Station
Location: Blairsville, GA
Elevation: 2343 ft
Nearby Weather Stations

Elev 2343 ft 34.87 °N, 83.94 °W | Updated 20 seconds ago

Overcast
Overcast
67.3 °F
Feels Like 67.3 °F
N
0.0
Wind Variable Wind from SSE
Gusts 0.0 mph

Today
High -- | Low -- °F
--% Chance of Precip.
Yesterday
High -- | Low -- °F
Precip. -- in
7:07 AM 8:05 PM
Waxing Gibbous, 99% visible
Pressure 30.18 in
Visibility 5.0 miles
Clouds
Dew Point 61 °F
Humidity 81%
Rainfall 0.00 in
Snow Depth Not available.
UV Not available.
Pollen 8.90 out of 12
Air Quality Not available.
Flu Activity Not available.
METAR KDZJ 300855Z AUTO 00000KT 5SM -DZ 18/14 A3018 RMK AO2 T01820140
Pressure 30.18 in
Visibility 5.0 miles
Clouds
Dew Point 61 °F
Humidity 81%
Rainfall 0.00 in
Snow Depth Not available.
UV Not available.
Pollen 8.90 out of 12
Air Quality Not available.
Flu Activity Not available.
METAR KDZJ 300855Z AUTO 00000KT 5SM -DZ 18/14 A3018 RMK AO2 T01820140

10-Day Weather Forecast

×

Almanac

Astronomy

Aug. 30, 2015 Rise Set
Actual Time
Civil Twilight
Nautical Twilight
Astronomical Twilight
Moon
Length of Visible Light
Length of Day
Tomorrow will be .
, % of the Moon is Illuminated

Today's Extremes

State Highs State Lows

Community

WunderPhotos

Upload Photos

1,850,909 photos uploaded!

WunderBlogs® & News

Nearby

Air Quality

  Air Quality AQ Index Pollutant
Not available.

Snow Depth

Station Depth Elevation

Earthquake Activity

City Distance Mag. Time & Date
Minimum magnitude displayed is 2.5.

Coastal Water Temperatures

Place Temperature

Stations

Nearby Weather Stations

Station Location Temp. Windchill Dew Point Humidity Wind Precip. Elev Updated Type